PWSweather.com
Personal Weather Stations
Station Observations
KMNHANSK2
Andys Live Weather Stations, Hanska, MN 56041

Andys Live Weather StationsHanska, MN 56041

Lat: 44.170119, Lon: -94.381619

Elevation: 1004

Station Type: Davis Instruments Vantage Pro2 Plus

http://www.madeliasliveweather.com/thompsonfarms/

High Low Average
Temperature 34.5°F1.4°F 30.7°F-0.7°F 32.1°F0.1°F
Dew Point 33.2°F0.7°F 28.9°F-1.7°F 30.9°F-0.6°F
Winds 26.0 mph NNW41.8 mph NNW 9.0 mph 14.5 mph 16.1 mph 25.9 mph
Wind Gusts 28.0 mph45.1 mph 13.0 mph20.9 mph 24.1 mph38.8 mph
Humidity 96% 93% 95%
Pressure 30.01 in1016.30 in 29.88 in1011.90 in -
Precipitation 4.31 in109.50 in - -
Hour Temp Dew Point Humidity Winds Wind Gusts Pressure Precip Precip Rate Daily Precip Total
08:00 PM 34.4°F1.3°C 33.1°F0.6°C 95% 15.0 mph NNE24.1 kmh NNE 16.0 mph25.7 kmh 29.88 in1011.9 mb 0.02 in0.5 mm 0.00 in/hr0.0 mm/hr 0.02 in0.5 mm
08:01 PM 34.5°F1.4°C 33.2°F0.7°C 95% 13.0 mph NE20.9 kmh NE 15.0 mph24.1 kmh 29.88 in1011.9 mb 0.01 in0.3 mm 0.00 in/hr0.0 mm/hr 0.02 in0.5 mm
08:02 PM 34.4°F1.3°C 33.1°F0.6°C 95% 14.0 mph NNE22.5 kmh NNE 15.0 mph24.1 kmh 29.88 in1011.9 mb 0.01 in0.3 mm 0.00 in/hr0.0 mm/hr 0.02 in0.5 mm
08:03 PM 34.5°F1.4°C 33.2°F0.7°C 95% 20.0 mph NNE32.2 kmh NNE 22.0 mph35.4 kmh 29.88 in1011.9 mb 0.01 in0.3 mm 0.00 in/hr0.0 mm/hr 0.02 in0.5 mm
08:04 PM 34.4°F1.3°C 33.1°F0.6°C 95% 16.0 mph NNE25.7 kmh NNE 22.0 mph35.4 kmh 29.88 in1011.9 mb 0.01 in0.3 mm 0.00 in/hr0.0 mm/hr 0.02 in0.5 mm
08:05 PM 34.5°F1.4°C 33.2°F0.7°C 95% 12.0 mph NE19.3 kmh NE 22.0 mph35.4 kmh 29.88 in1011.9 mb 0.01 in0.3 mm 0.00 in/hr0.0 mm/hr 0.02 in0.5 mm
08:06 PM 34.5°F1.4°C 33.2°F0.7°C 95% 14.0 mph NNE22.5 kmh NNE 22.0 mph35.4 kmh 29.88 in1011.9 mb 0.01 in0.3 mm 0.00 in/hr0.0 mm/hr 0.02 in0.5 mm
08:07 PM 34.5°F1.4°C 33.2°F0.7°C 95% 15.0 mph NE24.1 kmh NE 22.0 mph35.4 kmh 29.88 in1011.9 mb 0.01 in0.3 mm 0.00 in/hr0.0 mm/hr 0.02 in0.5 mm
08:08 PM 34.5°F1.4°C 33.2°F0.7°C 95% 16.0 mph NNE25.7 kmh NNE 22.0 mph35.4 kmh 29.88 in1011.9 mb 0.01 in0.3 mm 0.00 in/hr0.0 mm/hr 0.02 in0.5 mm
08:09 PM 34.5°F1.4°C 33.2°F0.7°C 95% 12.0 mph NNE19.3 kmh NNE 22.0 mph35.4 kmh 29.88 in1011.9 mb 0.01 in0.3 mm 0.00 in/hr0.0 mm/hr 0.02 in0.5 mm
08:10 PM 34.5°F1.4°C 33.2°F0.7°C 95% 13.0 mph NNE20.9 kmh NNE 22.0 mph35.4 kmh 29.88 in1011.9 mb 0.01 in0.3 mm 0.00 in/hr0.0 mm/hr 0.02 in0.5 mm
08:11 PM 34.5°F1.4°C 33.2°F0.7°C 95% 14.0 mph NNE22.5 kmh NNE 22.0 mph35.4 kmh 29.88 in1011.9 mb 0.01 in0.3 mm 0.00 in/hr0.0 mm/hr 0.02 in0.5 mm
08:12 PM 34.5°F1.4°C 33.2°F0.7°C 95% 16.0 mph NNE25.7 kmh NNE 22.0 mph35.4 kmh 29.88 in1011.9 mb 0.01 in0.3 mm 0.00 in/hr0.0 mm/hr 0.02 in0.5 mm
08:13 PM 34.4°F1.3°C 33.1°F0.6°C 95% 14.0 mph NNE22.5 kmh NNE 22.0 mph35.4 kmh 29.88 in1011.9 mb 0.02 in0.5 mm 0.60 in/hr15.2 mm/hr 0.03 in0.8 mm
08:14 PM 34.4°F1.3°C 33.1°F0.6°C 95% 11.0 mph NE17.7 kmh NE 22.0 mph35.4 kmh 29.88 in1011.9 mb 0.02 in0.5 mm 0.00 in/hr0.0 mm/hr 0.03 in0.8 mm
08:15 PM 34.5°F1.4°C 33.2°F0.7°C 95% 14.0 mph NNE22.5 kmh NNE 22.0 mph35.4 kmh 29.88 in1011.9 mb 0.02 in0.5 mm 0.00 in/hr0.0 mm/hr 0.03 in0.8 mm
08:16 PM 34.4°F1.3°C 33.1°F0.6°C 95% 12.0 mph NE19.3 kmh NE 22.0 mph35.4 kmh 29.88 in1011.9 mb 0.02 in0.5 mm 0.00 in/hr0.0 mm/hr 0.03 in0.8 mm
08:17 PM 34.4°F1.3°C 33.1°F0.6°C 95% 12.0 mph NE19.3 kmh NE 22.0 mph35.4 kmh 29.88 in1011.9 mb 0.02 in0.5 mm 0.00 in/hr0.0 mm/hr 0.03 in0.8 mm
08:18 PM 34.4°F1.3°C 33.1°F0.6°C 95% 14.0 mph NNE22.5 kmh NNE 22.0 mph35.4 kmh 29.88 in1011.9 mb 0.02 in0.5 mm 0.00 in/hr0.0 mm/hr 0.03 in0.8 mm
08:19 PM 34.4°F1.3°C 33.1°F0.6°C 95% 10.0 mph NNE16.1 kmh NNE 22.0 mph35.4 kmh 29.88 in1011.9 mb 0.02 in0.5 mm 0.00 in/hr0.0 mm/hr 0.03 in0.8 mm
08:20 PM 34.4°F1.3°C 33.1°F0.6°C 95% 13.0 mph NNE20.9 kmh NNE 22.0 mph35.4 kmh 29.88 in1011.9 mb 0.02 in0.5 mm 0.00 in/hr0.0 mm/hr 0.03 in0.8 mm
08:21 PM 34.4°F1.3°C 33.1°F0.6°C 95% 16.0 mph NNE25.7 kmh NNE 22.0 mph35.4 kmh 29.88 in1011.9 mb 0.02 in0.5 mm 0.00 in/hr0.0 mm/hr 0.03 in0.8 mm
08:22 PM 34.4°F1.3°C 33.1°F0.6°C 95% 15.0 mph NE24.1 kmh NE 22.0 mph35.4 kmh 29.88 in1011.9 mb 0.02 in0.5 mm 0.00 in/hr0.0 mm/hr 0.03 in0.8 mm
08:23 PM 34.4°F1.3°C 33.1°F0.6°C 95% 15.0 mph N24.1 kmh N 22.0 mph35.4 kmh 29.88 in1011.9 mb 0.02 in0.5 mm 0.00 in/hr0.0 mm/hr 0.03 in0.8 mm
08:24 PM 34.4°F1.3°C 33.1°F0.6°C 95% 15.0 mph NNE24.1 kmh NNE 22.0 mph35.4 kmh 29.89 in1012.2 mb 0.02 in0.5 mm 0.00 in/hr0.0 mm/hr 0.03 in0.8 mm
08:25 PM 34.4°F1.3°C 33.1°F0.6°C 95% 13.0 mph NE20.9 kmh NE 22.0 mph35.4 kmh 29.89 in1012.2 mb 0.02 in0.5 mm 0.00 in/hr0.0 mm/hr 0.03 in0.8 mm
08:26 PM 34.4°F1.3°C 33.1°F0.6°C 95% 14.0 mph NNE22.5 kmh NNE 22.0 mph35.4 kmh 29.89 in1012.2 mb 0.02 in0.5 mm 0.00 in/hr0.0 mm/hr 0.03 in0.8 mm
08:27 PM 34.4°F1.3°C 33.1°F0.6°C 95% 16.0 mph NNE25.7 kmh NNE 22.0 mph35.4 kmh 29.89 in1012.2 mb 0.02 in0.5 mm 0.00 in/hr0.0 mm/hr 0.03 in0.8 mm
08:28 PM 34.3°F1.3°C 33.0°F0.6°C 95% 13.0 mph NNE20.9 kmh NNE 22.0 mph35.4 kmh 29.89 in1012.2 mb 0.02 in0.5 mm 0.00 in/hr0.0 mm/hr 0.03 in0.8 mm
08:29 PM 34.3°F1.3°C 33.0°F0.6°C 95% 12.0 mph NNE19.3 kmh NNE 22.0 mph35.4 kmh 29.89 in1012.2 mb 0.02 in0.5 mm 0.00 in/hr0.0 mm/hr 0.03 in0.8 mm
08:30 PM 34.4°F1.3°C 33.1°F0.6°C 95% 15.0 mph NE24.1 kmh NE 22.0 mph35.4 kmh 29.89 in1012.2 mb 0.02 in0.5 mm 0.00 in/hr0.0 mm/hr 0.03 in0.8 mm
08:31 PM 34.3°F1.3°C 33.0°F0.6°C 95% 10.0 mph NNE16.1 kmh NNE 13.0 mph20.9 kmh 29.89 in1012.2 mb 0.01 in0.3 mm 0.00 in/hr0.0 mm/hr 0.03 in0.8 mm
08:32 PM 34.3°F1.3°C 33.0°F0.6°C 95% 14.0 mph NNE22.5 kmh NNE 18.0 mph29.0 kmh 29.89 in1012.2 mb 0.01 in0.3 mm 0.00 in/hr0.0 mm/hr 0.03 in0.8 mm
08:33 PM 34.3°F1.3°C 33.0°F0.6°C 95% 17.0 mph NNE27.4 kmh NNE 18.0 mph29.0 kmh 29.89 in1012.2 mb 0.01 in0.3 mm 0.00 in/hr0.0 mm/hr 0.03 in0.8 mm
08:34 PM 34.3°F1.3°C 33.0°F0.6°C 95% 16.0 mph NNE25.7 kmh NNE 20.0 mph32.2 kmh 29.89 in1012.2 mb 0.01 in0.3 mm 0.00 in/hr0.0 mm/hr 0.03 in0.8 mm
08:35 PM 34.3°F1.3°C 33.0°F0.6°C 95% 20.0 mph N32.2 kmh N 20.0 mph32.2 kmh 29.89 in1012.2 mb 0.01 in0.3 mm 0.00 in/hr0.0 mm/hr 0.03 in0.8 mm
08:36 PM 34.3°F1.3°C 33.0°F0.6°C 95% 17.0 mph NNE27.4 kmh NNE 22.0 mph35.4 kmh 29.89 in1012.2 mb 0.01 in0.3 mm 0.00 in/hr0.0 mm/hr 0.03 in0.8 mm
08:37 PM 34.2°F1.2°C 32.9°F0.5°C 95% 18.0 mph NNE29.0 kmh NNE 22.0 mph35.4 kmh 29.89 in1012.2 mb 0.01 in0.3 mm 0.00 in/hr0.0 mm/hr 0.03 in0.8 mm
08:38 PM 34.3°F1.3°C 33.0°F0.6°C 95% 15.0 mph N24.1 kmh N 22.0 mph35.4 kmh 29.89 in1012.2 mb 0.01 in0.3 mm 0.00 in/hr0.0 mm/hr 0.03 in0.8 mm
08:39 PM 34.2°F1.2°C 32.9°F0.5°C 95% 17.0 mph NNE27.4 kmh NNE 22.0 mph35.4 kmh 29.89 in1012.2 mb 0.02 in0.5 mm 0.60 in/hr15.2 mm/hr 0.04 in1.0 mm
08:40 PM 34.2°F1.2°C 32.9°F0.5°C 95% 17.0 mph NNE27.4 kmh NNE 22.0 mph35.4 kmh 29.89 in1012.2 mb 0.02 in0.5 mm 0.00 in/hr0.0 mm/hr 0.04 in1.0 mm
08:41 PM 34.2°F1.2°C 32.9°F0.5°C 95% 19.0 mph N30.6 kmh N 22.0 mph35.4 kmh 29.90 in1012.5 mb 0.02 in0.5 mm 0.00 in/hr0.0 mm/hr 0.04 in1.0 mm
08:42 PM 34.2°F1.2°C 32.9°F0.5°C 95% 17.0 mph NNE27.4 kmh NNE 22.0 mph35.4 kmh 29.90 in1012.5 mb 0.02 in0.5 mm 0.00 in/hr0.0 mm/hr 0.04 in1.0 mm
08:43 PM 34.2°F1.2°C 32.9°F0.5°C 95% 17.0 mph NNE27.4 kmh NNE 22.0 mph35.4 kmh 29.90 in1012.5 mb 0.02 in0.5 mm 0.00 in/hr0.0 mm/hr 0.04 in1.0 mm
08:44 PM 34.1°F1.2°C 32.8°F0.4°C 95% 13.0 mph NNE20.9 kmh NNE 22.0 mph35.4 kmh 29.90 in1012.5 mb 0.02 in0.5 mm 0.00 in/hr0.0 mm/hr 0.04 in1.0 mm
08:45 PM 34.1°F1.2°C 32.8°F0.4°C 95% 12.0 mph N19.3 kmh N 22.0 mph35.4 kmh 29.90 in1012.5 mb 0.02 in0.5 mm 0.00 in/hr0.0 mm/hr 0.04 in1.0 mm
08:46 PM 34.1°F1.2°C 32.8°F0.4°C 95% 15.0 mph N24.1 kmh N 22.0 mph35.4 kmh 29.90 in1012.5 mb 0.02 in0.5 mm 0.00 in/hr0.0 mm/hr 0.04 in1.0 mm
08:47 PM 34.1°F1.2°C 32.8°F0.4°C 95% 16.0 mph N25.7 kmh N 22.0 mph35.4 kmh 29.90 in1012.5 mb 0.02 in0.5 mm 0.00 in/hr0.0 mm/hr 0.04 in1.0 mm
08:48 PM 34.1°F1.2°C 32.8°F0.4°C 95% 12.0 mph N19.3 kmh N 22.0 mph35.4 kmh 29.90 in1012.5 mb 0.02 in0.5 mm 0.00 in/hr0.0 mm/hr 0.04 in1.0 mm
08:49 PM 34.1°F1.2°C 32.8°F0.4°C 95% 10.0 mph NNW16.1 kmh NNW 22.0 mph35.4 kmh 29.91 in1012.9 mb 0.02 in0.5 mm 0.00 in/hr0.0 mm/hr 0.04 in1.0 mm
08:50 PM 34.0°F1.1°C 32.7°F0.4°C 95% 16.0 mph N25.7 kmh N 22.0 mph35.4 kmh 29.91 in1012.9 mb 0.02 in0.5 mm 0.00 in/hr0.0 mm/hr 0.04 in1.0 mm
08:51 PM 34.0°F1.1°C 32.7°F0.4°C 95% 12.0 mph N19.3 kmh N 22.0 mph35.4 kmh 29.91 in1012.9 mb 0.02 in0.5 mm 0.00 in/hr0.0 mm/hr 0.04 in1.0 mm
08:52 PM 33.9°F1.1°C 32.6°F0.3°C 95% 13.0 mph N20.9 kmh N 22.0 mph35.4 kmh 29.91 in1012.9 mb 0.02 in0.5 mm 0.00 in/hr0.0 mm/hr 0.04 in1.0 mm
08:53 PM 33.9°F1.1°C 32.6°F0.3°C 95% 13.0 mph NNW20.9 kmh NNW 22.0 mph35.4 kmh 29.91 in1012.9 mb 0.02 in0.5 mm 0.00 in/hr0.0 mm/hr 0.04 in1.0 mm
08:54 PM 33.9°F1.1°C 32.6°F0.3°C 95% 13.0 mph N20.9 kmh N 22.0 mph35.4 kmh 29.91 in1012.9 mb 0.02 in0.5 mm 0.00 in/hr0.0 mm/hr 0.04 in1.0 mm
08:55 PM 33.9°F1.1°C 32.6°F0.3°C 95% 17.0 mph N27.4 kmh N 22.0 mph35.4 kmh 29.91 in1012.9 mb 0.02 in0.5 mm 0.00 in/hr0.0 mm/hr 0.04 in1.0 mm
08:56 PM 33.8°F1.0°C 32.5°F0.3°C 95% 14.0 mph N22.5 kmh N 22.0 mph35.4 kmh 29.91 in1012.9 mb 0.02 in0.5 mm 0.00 in/hr0.0 mm/hr 0.04 in1.0 mm
08:57 PM 33.7°F0.9°C 32.4°F0.2°C 95% 14.0 mph N22.5 kmh N 22.0 mph35.4 kmh 29.91 in1012.9 mb 0.02 in0.5 mm 0.00 in/hr0.0 mm/hr 0.04 in1.0 mm
08:58 PM 33.7°F0.9°C 32.4°F0.2°C 95% 11.0 mph N17.7 kmh N 22.0 mph35.4 kmh 29.91 in1012.9 mb 0.02 in0.5 mm 0.00 in/hr0.0 mm/hr 0.04 in1.0 mm
08:59 PM 33.6°F0.9°C 32.3°F0.2°C 95% 14.0 mph NNW22.5 kmh NNW 22.0 mph35.4 kmh 29.92 in1013.2 mb 0.02 in0.5 mm 0.00 in/hr0.0 mm/hr 0.04 in1.0 mm
09:00 PM 33.5°F0.8°C 32.2°F0.1°C 95% 12.0 mph NNW19.3 kmh NNW 22.0 mph35.4 kmh 29.92 in1013.2 mb 0.02 in0.5 mm 0.00 in/hr0.0 mm/hr 0.04 in1.0 mm
09:01 PM 33.4°F0.8°C 32.1°F0.1°C 95% 12.0 mph N19.3 kmh N 17.0 mph27.4 kmh 29.92 in1013.2 mb 0.02 in0.5 mm 0.00 in/hr0.0 mm/hr 0.04 in1.0 mm
09:02 PM 33.4°F0.8°C 32.1°F0.1°C 95% 16.0 mph N25.7 kmh N 17.0 mph27.4 kmh 29.92 in1013.2 mb 0.02 in0.5 mm 0.00 in/hr0.0 mm/hr 0.04 in1.0 mm
09:03 PM 33.3°F0.7°C 32.0°F0.0°C 95% 16.0 mph N25.7 kmh N 17.0 mph27.4 kmh 29.92 in1013.2 mb 0.02 in0.5 mm 0.00 in/hr0.0 mm/hr 0.04 in1.0 mm
09:04 PM 33.3°F0.7°C 32.0°F0.0°C 95% 16.0 mph N25.7 kmh N 17.0 mph27.4 kmh 29.92 in1013.2 mb 0.02 in0.5 mm 0.00 in/hr0.0 mm/hr 0.04 in1.0 mm
09:05 PM 33.3°F0.7°C 32.0°F0.0°C 95% 10.0 mph N16.1 kmh N 17.0 mph27.4 kmh 29.92 in1013.2 mb 0.02 in0.5 mm 0.00 in/hr0.0 mm/hr 0.04 in1.0 mm
09:06 PM 33.2°F0.7°C 31.9°F-0.1°C 95% 18.0 mph N29.0 kmh N 20.0 mph32.2 kmh 29.92 in1013.2 mb 0.02 in0.5 mm 0.00 in/hr0.0 mm/hr 0.04 in1.0 mm
09:07 PM 33.2°F0.7°C 31.9°F-0.1°C 95% 13.0 mph NNW20.9 kmh NNW 21.0 mph33.8 kmh 29.92 in1013.2 mb 0.02 in0.5 mm 0.00 in/hr0.0 mm/hr 0.04 in1.0 mm
09:08 PM 33.1°F0.6°C 31.8°F-0.1°C 95% 19.0 mph NNW30.6 kmh NNW 21.0 mph33.8 kmh 29.92 in1013.2 mb 0.02 in0.5 mm 0.00 in/hr0.0 mm/hr 0.04 in1.0 mm
09:09 PM 33.1°F0.6°C 31.8°F-0.1°C 95% 11.0 mph NNW17.7 kmh NNW 21.0 mph33.8 kmh 29.92 in1013.2 mb 0.02 in0.5 mm 0.00 in/hr0.0 mm/hr 0.04 in1.0 mm
09:10 PM 33.0°F0.6°C 31.7°F-0.2°C 95% 11.0 mph N17.7 kmh N 21.0 mph33.8 kmh 29.92 in1013.2 mb 0.02 in0.5 mm 0.00 in/hr0.0 mm/hr 0.04 in1.0 mm
09:11 PM 33.0°F0.6°C 31.7°F-0.2°C 95% 20.0 mph N32.2 kmh N 25.0 mph40.2 kmh 29.92 in1013.2 mb 0.03 in0.8 mm 0.60 in/hr15.2 mm/hr 0.05 in1.3 mm
09:12 PM 33.0°F0.6°C 31.7°F-0.2°C 95% 13.0 mph N20.9 kmh N 25.0 mph40.2 kmh 29.92 in1013.2 mb 0.03 in0.8 mm 0.00 in/hr0.0 mm/hr 0.05 in1.3 mm
09:13 PM 32.9°F0.5°C 31.6°F-0.2°C 95% 18.0 mph NNW29.0 kmh NNW 25.0 mph40.2 kmh 29.92 in1013.2 mb 0.03 in0.8 mm 0.00 in/hr0.0 mm/hr 0.05 in1.3 mm
09:14 PM 32.9°F0.5°C 31.6°F-0.2°C 95% 16.0 mph NNW25.7 kmh NNW 25.0 mph40.2 kmh 29.92 in1013.2 mb 0.03 in0.8 mm 0.00 in/hr0.0 mm/hr 0.05 in1.3 mm
09:15 PM 32.9°F0.5°C 31.6°F-0.2°C 95% 13.0 mph NNW20.9 kmh NNW 25.0 mph40.2 kmh 29.92 in1013.2 mb 0.03 in0.8 mm 0.00 in/hr0.0 mm/hr 0.05 in1.3 mm
09:16 PM 32.8°F0.4°C 31.5°F-0.3°C 95% 14.0 mph NNW22.5 kmh NNW 25.0 mph40.2 kmh 29.92 in1013.2 mb 0.03 in0.8 mm 0.00 in/hr0.0 mm/hr 0.05 in1.3 mm
09:17 PM 32.8°F0.4°C 31.5°F-0.3°C 95% 15.0 mph N24.1 kmh N 25.0 mph40.2 kmh 29.92 in1013.2 mb 0.03 in0.8 mm 0.00 in/hr0.0 mm/hr 0.05 in1.3 mm
09:18 PM 32.8°F0.4°C 31.5°F-0.3°C 95% 14.0 mph N22.5 kmh N 25.0 mph40.2 kmh 29.93 in1013.5 mb 0.03 in0.8 mm 0.00 in/hr0.0 mm/hr 0.05 in1.3 mm
09:19 PM 32.7°F0.4°C 31.4°F-0.3°C 95% 18.0 mph NNW29.0 kmh NNW 25.0 mph40.2 kmh 29.93 in1013.5 mb 0.03 in0.8 mm 0.00 in/hr0.0 mm/hr 0.05 in1.3 mm
09:20 PM 32.6°F0.3°C 31.6°F-0.2°C 96% 14.0 mph NNW22.5 kmh NNW 25.0 mph40.2 kmh 29.93 in1013.5 mb 0.03 in0.8 mm 0.00 in/hr0.0 mm/hr 0.05 in1.3 mm
09:21 PM 32.6°F0.3°C 31.6°F-0.2°C 96% 18.0 mph N29.0 kmh N 25.0 mph40.2 kmh 29.93 in1013.5 mb 0.03 in0.8 mm 0.00 in/hr0.0 mm/hr 0.05 in1.3 mm
09:22 PM 32.5°F0.3°C 31.5°F-0.3°C 96% 13.0 mph N20.9 kmh N 25.0 mph40.2 kmh 29.93 in1013.5 mb 0.03 in0.8 mm 0.00 in/hr0.0 mm/hr 0.05 in1.3 mm
09:23 PM 32.4°F0.2°C 31.4°F-0.3°C 96% 14.0 mph NNW22.5 kmh NNW 25.0 mph40.2 kmh 29.93 in1013.5 mb 0.03 in0.8 mm 0.00 in/hr0.0 mm/hr 0.05 in1.3 mm
09:24 PM 32.4°F0.2°C 31.4°F-0.3°C 96% 13.0 mph N20.9 kmh N 25.0 mph40.2 kmh 29.93 in1013.5 mb 0.03 in0.8 mm 0.00 in/hr0.0 mm/hr 0.05 in1.3 mm
09:25 PM 32.3°F0.2°C 31.0°F-0.6°C 95% 16.0 mph NNW25.7 kmh NNW 25.0 mph40.2 kmh 29.93 in1013.5 mb 0.03 in0.8 mm 0.00 in/hr0.0 mm/hr 0.05 in1.3 mm
09:26 PM 32.3°F0.2°C 31.0°F-0.6°C 95% 15.0 mph NNW24.1 kmh NNW 25.0 mph40.2 kmh 29.93 in1013.5 mb 0.03 in0.8 mm 0.00 in/hr0.0 mm/hr 0.05 in1.3 mm
09:27 PM 32.2°F0.1°C 31.2°F-0.4°C 96% 17.0 mph N27.4 kmh N 25.0 mph40.2 kmh 29.93 in1013.5 mb 0.03 in0.8 mm 0.00 in/hr0.0 mm/hr 0.05 in1.3 mm
09:28 PM 32.2°F0.1°C 31.2°F-0.4°C 96% 14.0 mph N22.5 kmh N 25.0 mph40.2 kmh 29.93 in1013.5 mb 0.03 in0.8 mm 0.00 in/hr0.0 mm/hr 0.05 in1.3 mm
09:29 PM 32.1°F0.1°C 31.1°F-0.5°C 96% 26.0 mph NNW41.8 kmh NNW 26.0 mph41.8 kmh 29.93 in1013.5 mb 0.03 in0.8 mm 0.00 in/hr0.0 mm/hr 0.05 in1.3 mm
09:30 PM 32.0°F0.0°C 31.0°F-0.6°C 96% 15.0 mph NNW24.1 kmh NNW 26.0 mph41.8 kmh 29.93 in1013.5 mb 0.03 in0.8 mm 0.00 in/hr0.0 mm/hr 0.05 in1.3 mm
09:31 PM 32.0°F0.0°C 31.0°F-0.6°C 96% 17.0 mph N27.4 kmh N 21.0 mph33.8 kmh 29.93 in1013.5 mb 0.02 in0.5 mm 0.00 in/hr0.0 mm/hr 0.05 in1.3 mm
09:32 PM 31.9°F-0.1°C 30.9°F-0.6°C 96% 14.0 mph NNW22.5 kmh NNW 23.0 mph37.0 kmh 29.93 in1013.5 mb 0.02 in0.5 mm 0.00 in/hr0.0 mm/hr 0.05 in1.3 mm
09:33 PM 31.9°F-0.1°C 30.9°F-0.6°C 96% 20.0 mph N32.2 kmh N 23.0 mph37.0 kmh 29.93 in1013.5 mb 0.02 in0.5 mm 0.00 in/hr0.0 mm/hr 0.05 in1.3 mm
09:34 PM 31.8°F-0.1°C 30.8°F-0.7°C 96% 18.0 mph N29.0 kmh N 23.0 mph37.0 kmh 29.93 in1013.5 mb 0.02 in0.5 mm 0.00 in/hr0.0 mm/hr 0.05 in1.3 mm
09:35 PM 31.7°F-0.2°C 30.7°F-0.7°C 96% 18.0 mph N29.0 kmh N 23.0 mph37.0 kmh 29.94 in1013.9 mb 0.02 in0.5 mm 0.00 in/hr0.0 mm/hr 0.05 in1.3 mm
09:36 PM 31.7°F-0.2°C 30.7°F-0.7°C 96% 18.0 mph NNW29.0 kmh NNW 23.0 mph37.0 kmh 29.94 in1013.9 mb 0.02 in0.5 mm 0.00 in/hr0.0 mm/hr 0.05 in1.3 mm
09:37 PM 31.7°F-0.2°C 30.7°F-0.7°C 96% 20.0 mph N32.2 kmh N 24.0 mph38.6 kmh 29.94 in1013.9 mb 0.02 in0.5 mm 0.00 in/hr0.0 mm/hr 0.05 in1.3 mm
09:38 PM 31.6°F-0.2°C 30.6°F-0.8°C 96% 11.0 mph N17.7 kmh N 24.0 mph38.6 kmh 29.94 in1013.9 mb 0.02 in0.5 mm 0.00 in/hr0.0 mm/hr 0.05 in1.3 mm
09:39 PM 31.6°F-0.2°C 30.6°F-0.8°C 96% 22.0 mph N35.4 kmh N 24.0 mph38.6 kmh 29.94 in1013.9 mb 0.03 in0.8 mm 0.60 in/hr15.2 mm/hr 0.06 in1.5 mm
09:40 PM 31.6°F-0.2°C 30.6°F-0.8°C 96% 20.0 mph N32.2 kmh N 24.0 mph38.6 kmh 29.94 in1013.9 mb 0.03 in0.8 mm 0.00 in/hr0.0 mm/hr 0.06 in1.5 mm
09:41 PM 31.5°F-0.3°C 30.5°F-0.8°C 96% 19.0 mph N30.6 kmh N 24.0 mph38.6 kmh 29.94 in1013.9 mb 0.03 in0.8 mm 0.00 in/hr0.0 mm/hr 0.06 in1.5 mm
09:42 PM 31.5°F-0.3°C 30.5°F-0.8°C 96% 16.0 mph NNE25.7 kmh NNE 24.0 mph38.6 kmh 29.94 in1013.9 mb 0.03 in0.8 mm 0.00 in/hr0.0 mm/hr 0.06 in1.5 mm
09:43 PM 31.5°F-0.3°C 30.5°F-0.8°C 96% 15.0 mph N24.1 kmh N 24.0 mph38.6 kmh 29.94 in1013.9 mb 0.03 in0.8 mm 0.00 in/hr0.0 mm/hr 0.06 in1.5 mm
09:44 PM 31.5°F-0.3°C 30.5°F-0.8°C 96% 21.0 mph N33.8 kmh N 24.0 mph38.6 kmh 29.94 in1013.9 mb 0.03 in0.8 mm 0.00 in/hr0.0 mm/hr 0.06 in1.5 mm
09:45 PM 31.5°F-0.3°C 30.5°F-0.8°C 96% 17.0 mph N27.4 kmh N 25.0 mph40.2 kmh 29.94 in1013.9 mb 0.03 in0.8 mm 0.00 in/hr0.0 mm/hr 0.06 in1.5 mm
09:46 PM 31.5°F-0.3°C 30.5°F-0.8°C 96% 19.0 mph N30.6 kmh N 25.0 mph40.2 kmh 29.94 in1013.9 mb 0.03 in0.8 mm 0.00 in/hr0.0 mm/hr 0.06 in1.5 mm
09:47 PM 31.4°F-0.3°C 30.4°F-0.9°C 96% 15.0 mph NNW24.1 kmh NNW 25.0 mph40.2 kmh 29.94 in1013.9 mb 0.03 in0.8 mm 0.00 in/hr0.0 mm/hr 0.06 in1.5 mm
09:48 PM 31.4°F-0.3°C 30.4°F-0.9°C 96% 21.0 mph N33.8 kmh N 25.0 mph40.2 kmh 29.95 in1014.2 mb 0.03 in0.8 mm 0.00 in/hr0.0 mm/hr 0.06 in1.5 mm
09:49 PM 31.4°F-0.3°C 30.4°F-0.9°C 96% 16.0 mph N25.7 kmh N 25.0 mph40.2 kmh 29.95 in1014.2 mb 0.03 in0.8 mm 0.00 in/hr0.0 mm/hr 0.06 in1.5 mm
09:50 PM 31.4°F-0.3°C 30.4°F-0.9°C 96% 16.0 mph N25.7 kmh N 25.0 mph40.2 kmh 29.95 in1014.2 mb 0.03 in0.8 mm 0.00 in/hr0.0 mm/hr 0.06 in1.5 mm
09:51 PM 31.4°F-0.3°C 30.4°F-0.9°C 96% 14.0 mph N22.5 kmh N 25.0 mph40.2 kmh 29.95 in1014.2 mb 0.03 in0.8 mm 0.00 in/hr0.0 mm/hr 0.06 in1.5 mm
09:52 PM 31.4°F-0.3°C 30.4°F-0.9°C 96% 17.0 mph N27.4 kmh N 25.0 mph40.2 kmh 29.95 in1014.2 mb 0.03 in0.8 mm 0.00 in/hr0.0 mm/hr 0.06 in1.5 mm
09:53 PM 31.4°F-0.3°C 30.4°F-0.9°C 96% 15.0 mph NNW24.1 kmh NNW 25.0 mph40.2 kmh 29.95 in1014.2 mb 0.03 in0.8 mm 0.00 in/hr0.0 mm/hr 0.06 in1.5 mm
09:54 PM 31.4°F-0.3°C 30.4°F-0.9°C 96% 17.0 mph N27.4 kmh N 25.0 mph40.2 kmh 29.95 in1014.2 mb 0.03 in0.8 mm 0.00 in/hr0.0 mm/hr 0.06 in1.5 mm
09:55 PM 31.4°F-0.3°C 30.4°F-0.9°C 96% 11.0 mph N17.7 kmh N 25.0 mph40.2 kmh 29.95 in1014.2 mb 0.03 in0.8 mm 0.00 in/hr0.0 mm/hr 0.06 in1.5 mm
09:56 PM 31.4°F-0.3°C 30.4°F-0.9°C 96% 15.0 mph N24.1 kmh N 25.0 mph40.2 kmh 29.95 in1014.2 mb 0.03 in0.8 mm 0.00 in/hr0.0 mm/hr 0.06 in1.5 mm
09:57 PM 31.4°F-0.3°C 30.4°F-0.9°C 96% 12.0 mph NNW19.3 kmh NNW 25.0 mph40.2 kmh 29.95 in1014.2 mb 0.03 in0.8 mm 0.00 in/hr0.0 mm/hr 0.06 in1.5 mm
09:58 PM 31.4°F-0.3°C 30.4°F-0.9°C 96% 20.0 mph N32.2 kmh N 25.0 mph40.2 kmh 29.95 in1014.2 mb 0.03 in0.8 mm 0.00 in/hr0.0 mm/hr 0.06 in1.5 mm
09:59 PM 31.4°F-0.3°C 30.4°F-0.9°C 96% 18.0 mph N29.0 kmh N 25.0 mph40.2 kmh 29.95 in1014.2 mb 0.03 in0.8 mm 0.00 in/hr0.0 mm/hr 0.06 in1.5 mm
10:00 PM 31.4°F-0.3°C 30.4°F-0.9°C 96% 10.0 mph N16.1 kmh N 25.0 mph40.2 kmh 29.96 in1014.6 mb 0.03 in0.8 mm 0.00 in/hr0.0 mm/hr 0.06 in1.5 mm
10:01 PM 31.4°F-0.3°C 30.4°F-0.9°C 96% 13.0 mph N20.9 kmh N 21.0 mph33.8 kmh 29.96 in1014.6 mb 0.02 in0.5 mm 0.00 in/hr0.0 mm/hr 0.06 in1.5 mm
10:02 PM 31.4°F-0.3°C 30.4°F-0.9°C 96% 20.0 mph N32.2 kmh N 24.0 mph38.6 kmh 29.96 in1014.6 mb 0.02 in0.5 mm 0.00 in/hr0.0 mm/hr 0.06 in1.5 mm
10:03 PM 31.4°F-0.3°C 30.4°F-0.9°C 96% 20.0 mph N32.2 kmh N 25.0 mph40.2 kmh 29.96 in1014.6 mb 0.02 in0.5 mm 0.00 in/hr0.0 mm/hr 0.06 in1.5 mm
10:04 PM 31.3°F-0.4°C 30.3°F-0.9°C 96% 15.0 mph NNW24.1 kmh NNW 25.0 mph40.2 kmh 29.96 in1014.6 mb 0.02 in0.5 mm 0.00 in/hr0.0 mm/hr 0.06 in1.5 mm
10:05 PM 31.3°F-0.4°C 30.3°F-0.9°C 96% 18.0 mph NNW29.0 kmh NNW 25.0 mph40.2 kmh 29.96 in1014.6 mb 0.02 in0.5 mm 0.00 in/hr0.0 mm/hr 0.06 in1.5 mm
10:06 PM 31.3°F-0.4°C 30.3°F-0.9°C 96% 16.0 mph N25.7 kmh N 25.0 mph40.2 kmh 29.96 in1014.6 mb 0.02 in0.5 mm 0.00 in/hr0.0 mm/hr 0.06 in1.5 mm
10:07 PM 31.3°F-0.4°C 30.3°F-0.9°C 96% 11.0 mph NNW17.7 kmh NNW 25.0 mph40.2 kmh 29.96 in1014.6 mb 0.02 in0.5 mm 0.00 in/hr0.0 mm/hr 0.06 in1.5 mm
10:08 PM 31.3°F-0.4°C 30.3°F-0.9°C 96% 18.0 mph N29.0 kmh N 25.0 mph40.2 kmh 29.96 in1014.6 mb 0.02 in0.5 mm 0.00 in/hr0.0 mm/hr 0.06 in1.5 mm
10:09 PM 31.3°F-0.4°C 30.3°F-0.9°C 96% 13.0 mph N20.9 kmh N 25.0 mph40.2 kmh 29.96 in1014.6 mb 0.02 in0.5 mm 0.00 in/hr0.0 mm/hr 0.06 in1.5 mm
10:10 PM 31.2°F-0.4°C 30.2°F-1.0°C 96% 12.0 mph N19.3 kmh N 25.0 mph40.2 kmh 29.96 in1014.6 mb 0.02 in0.5 mm 0.00 in/hr0.0 mm/hr 0.06 in1.5 mm
10:11 PM 31.2°F-0.4°C 30.2°F-1.0°C 96% 17.0 mph N27.4 kmh N 25.0 mph40.2 kmh 29.96 in1014.6 mb 0.02 in0.5 mm 0.00 in/hr0.0 mm/hr 0.06 in1.5 mm
10:12 PM 31.2°F-0.4°C 30.2°F-1.0°C 96% 15.0 mph N24.1 kmh N 25.0 mph40.2 kmh 29.96 in1014.6 mb 0.02 in0.5 mm 0.00 in/hr0.0 mm/hr 0.06 in1.5 mm
10:13 PM 31.2°F-0.4°C 30.2°F-1.0°C 96% 14.0 mph N22.5 kmh N 25.0 mph40.2 kmh 29.97 in1014.9 mb 0.02 in0.5 mm 0.00 in/hr0.0 mm/hr 0.06 in1.5 mm
10:14 PM 31.2°F-0.4°C 30.2°F-1.0°C 96% 12.0 mph N19.3 kmh N 25.0 mph40.2 kmh 29.97 in1014.9 mb 0.02 in0.5 mm 0.00 in/hr0.0 mm/hr 0.06 in1.5 mm
10:15 PM 31.2°F-0.4°C 30.2°F-1.0°C 96% 12.0 mph N19.3 kmh N 25.0 mph40.2 kmh 29.97 in1014.9 mb 0.02 in0.5 mm 0.00 in/hr0.0 mm/hr 0.06 in1.5 mm
10:16 PM 31.2°F-0.4°C 30.2°F-1.0°C 96% 13.0 mph NNW20.9 kmh NNW 25.0 mph40.2 kmh 29.97 in1014.9 mb 0.02 in0.5 mm 0.00 in/hr0.0 mm/hr 0.06 in1.5 mm
10:17 PM 31.2°F-0.4°C 30.2°F-1.0°C 96% 12.0 mph N19.3 kmh N 25.0 mph40.2 kmh 29.97 in1014.9 mb 0.02 in0.5 mm 0.00 in/hr0.0 mm/hr 0.06 in1.5 mm
10:18 PM 31.2°F-0.4°C 30.2°F-1.0°C 96% 11.0 mph NNW17.7 kmh NNW 25.0 mph40.2 kmh 29.97 in1014.9 mb 0.02 in0.5 mm 0.00 in/hr0.0 mm/hr 0.06 in1.5 mm
10:19 PM 31.2°F-0.4°C 30.2°F-1.0°C 96% 20.0 mph N32.2 kmh N 25.0 mph40.2 kmh 29.97 in1014.9 mb 0.02 in0.5 mm 0.00 in/hr0.0 mm/hr 0.06 in1.5 mm
10:20 PM 31.2°F-0.4°C 30.2°F-1.0°C 96% 17.0 mph N27.4 kmh N 26.0 mph41.8 kmh 29.96 in1014.6 mb 0.02 in0.5 mm 0.00 in/hr0.0 mm/hr 0.06 in1.5 mm
10:21 PM 31.1°F-0.5°C 30.1°F-1.1°C 96% 14.0 mph NNW22.5 kmh NNW 26.0 mph41.8 kmh 29.97 in1014.9 mb 0.02 in0.5 mm 0.00 in/hr0.0 mm/hr 0.06 in1.5 mm
10:22 PM 31.1°F-0.5°C 30.1°F-1.1°C 96% 16.0 mph N25.7 kmh N 26.0 mph41.8 kmh 29.97 in1014.9 mb 0.02 in0.5 mm 0.00 in/hr0.0 mm/hr 0.06 in1.5 mm
10:23 PM 31.1°F-0.5°C 30.1°F-1.1°C 96% 20.0 mph N32.2 kmh N 26.0 mph41.8 kmh 29.97 in1014.9 mb 0.02 in0.5 mm 0.00 in/hr0.0 mm/hr 0.06 in1.5 mm
10:24 PM 31.1°F-0.5°C 30.1°F-1.1°C 96% 16.0 mph N25.7 kmh N 26.0 mph41.8 kmh 29.97 in1014.9 mb 0.02 in0.5 mm 0.00 in/hr0.0 mm/hr 0.06 in1.5 mm
10:25 PM 31.1°F-0.5°C 30.1°F-1.1°C 96% 21.0 mph N33.8 kmh N 26.0 mph41.8 kmh 29.97 in1014.9 mb 0.02 in0.5 mm 0.00 in/hr0.0 mm/hr 0.06 in1.5 mm
10:26 PM 31.1°F-0.5°C 30.1°F-1.1°C 96% 18.0 mph N29.0 kmh N 26.0 mph41.8 kmh 29.97 in1014.9 mb 0.02 in0.5 mm 0.00 in/hr0.0 mm/hr 0.06 in1.5 mm
10:27 PM 31.1°F-0.5°C 30.1°F-1.1°C 96% 18.0 mph NNW29.0 kmh NNW 26.0 mph41.8 kmh 29.97 in1014.9 mb 0.02 in0.5 mm 0.00 in/hr0.0 mm/hr 0.06 in1.5 mm
10:28 PM 31.1°F-0.5°C 30.1°F-1.1°C 96% 18.0 mph N29.0 kmh N 26.0 mph41.8 kmh 29.97 in1014.9 mb 0.02 in0.5 mm 0.00 in/hr0.0 mm/hr 0.06 in1.5 mm
10:29 PM 31.1°F-0.5°C 30.1°F-1.1°C 96% 17.0 mph N27.4 kmh N 26.0 mph41.8 kmh 29.97 in1014.9 mb 0.02 in0.5 mm 0.00 in/hr0.0 mm/hr 0.06 in1.5 mm
10:30 PM 31.1°F-0.5°C 30.1°F-1.1°C 96% 11.0 mph N17.7 kmh N 26.0 mph41.8 kmh 29.97 in1014.9 mb 0.02 in0.5 mm 0.00 in/hr0.0 mm/hr 0.06 in1.5 mm
10:31 PM 31.1°F-0.5°C 30.1°F-1.1°C 96% 19.0 mph N30.6 kmh N 23.0 mph37.0 kmh 29.97 in1014.9 mb 0.01 in0.3 mm 0.00 in/hr0.0 mm/hr 0.06 in1.5 mm
10:32 PM 31.2°F-0.4°C 30.2°F-1.0°C 96% 12.0 mph NNW19.3 kmh NNW 23.0 mph37.0 kmh 29.97 in1014.9 mb 0.01 in0.3 mm 0.00 in/hr0.0 mm/hr 0.06 in1.5 mm
10:33 PM 31.1°F-0.5°C 30.1°F-1.1°C 96% 25.0 mph N40.2 kmh N 25.0 mph40.2 kmh 29.97 in1014.9 mb 0.01 in0.3 mm 0.00 in/hr0.0 mm/hr 0.06 in1.5 mm
10:34 PM 31.2°F-0.4°C 30.2°F-1.0°C 96% 19.0 mph N30.6 kmh N 25.0 mph40.2 kmh 29.97 in1014.9 mb 0.01 in0.3 mm 0.00 in/hr0.0 mm/hr 0.06 in1.5 mm
10:35 PM 31.1°F-0.5°C 30.1°F-1.1°C 96% 18.0 mph NNW29.0 kmh NNW 25.0 mph40.2 kmh 29.97 in1014.9 mb 0.01 in0.3 mm 0.00 in/hr0.0 mm/hr 0.06 in1.5 mm
10:36 PM 31.1°F-0.5°C 30.1°F-1.1°C 96% 17.0 mph N27.4 kmh N 25.0 mph40.2 kmh 29.97 in1014.9 mb 0.01 in0.3 mm 0.00 in/hr0.0 mm/hr 0.06 in1.5 mm
10:37 PM 31.1°F-0.5°C 30.1°F-1.1°C 96% 17.0 mph NNW27.4 kmh NNW 25.0 mph40.2 kmh 29.97 in1014.9 mb 0.01 in0.3 mm 0.00 in/hr0.0 mm/hr 0.06 in1.5 mm
10:38 PM 31.1°F-0.5°C 30.1°F-1.1°C 96% 16.0 mph N25.7 kmh N 25.0 mph40.2 kmh 29.98 in1015.2 mb 0.01 in0.3 mm 0.00 in/hr0.0 mm/hr 0.06 in1.5 mm
10:39 PM 31.1°F-0.5°C 29.8°F-1.2°C 95% 16.0 mph NNW25.7 kmh NNW 25.0 mph40.2 kmh 29.98 in1015.2 mb 0.01 in0.3 mm 0.00 in/hr0.0 mm/hr 0.06 in1.5 mm
10:40 PM 31.0°F-0.6°C 29.7°F-1.3°C 95% 20.0 mph NNW32.2 kmh NNW 25.0 mph40.2 kmh 29.98 in1015.2 mb 0.01 in0.3 mm 0.00 in/hr0.0 mm/hr 0.06 in1.5 mm
10:41 PM 31.0°F-0.6°C 29.7°F-1.3°C 95% 17.0 mph NNW27.4 kmh NNW 25.0 mph40.2 kmh 29.98 in1015.2 mb 0.01 in0.3 mm 0.00 in/hr0.0 mm/hr 0.06 in1.5 mm
10:42 PM 31.0°F-0.6°C 29.7°F-1.3°C 95% 12.0 mph N19.3 kmh N 25.0 mph40.2 kmh 29.98 in1015.2 mb 0.01 in0.3 mm 0.00 in/hr0.0 mm/hr 0.06 in1.5 mm
10:43 PM 31.0°F-0.6°C 29.7°F-1.3°C 95% 17.0 mph N27.4 kmh N 25.0 mph40.2 kmh 29.98 in1015.2 mb 0.02 in0.5 mm 0.60 in/hr15.2 mm/hr 0.07 in1.8 mm
10:44 PM 31.0°F-0.6°C 29.7°F-1.3°C 95% 13.0 mph N20.9 kmh N 25.0 mph40.2 kmh 29.98 in1015.2 mb 0.02 in0.5 mm 0.00 in/hr0.0 mm/hr 0.07 in1.8 mm
10:45 PM 31.0°F-0.6°C 29.7°F-1.3°C 95% 16.0 mph NNW25.7 kmh NNW 25.0 mph40.2 kmh 29.98 in1015.2 mb 0.02 in0.5 mm 0.00 in/hr0.0 mm/hr 0.07 in1.8 mm
10:46 PM 31.0°F-0.6°C 29.7°F-1.3°C 95% 20.0 mph NNW32.2 kmh NNW 25.0 mph40.2 kmh 29.98 in1015.2 mb 0.02 in0.5 mm 0.00 in/hr0.0 mm/hr 0.07 in1.8 mm
10:47 PM 31.0°F-0.6°C 29.7°F-1.3°C 95% 17.0 mph N27.4 kmh N 25.0 mph40.2 kmh 29.98 in1015.2 mb 0.02 in0.5 mm 0.00 in/hr0.0 mm/hr 0.07 in1.8 mm
10:48 PM 30.9°F-0.6°C 29.6°F-1.3°C 95% 19.0 mph N30.6 kmh N 25.0 mph40.2 kmh 29.98 in1015.2 mb 0.02 in0.5 mm 0.00 in/hr0.0 mm/hr 0.07 in1.8 mm
10:49 PM 30.9°F-0.6°C 29.6°F-1.3°C 95% 17.0 mph N27.4 kmh N 25.0 mph40.2 kmh 29.98 in1015.2 mb 0.02 in0.5 mm 0.00 in/hr0.0 mm/hr 0.07 in1.8 mm
10:50 PM 30.9°F-0.6°C 29.6°F-1.3°C 95% 18.0 mph N29.0 kmh N 25.0 mph40.2 kmh 29.98 in1015.2 mb 0.02 in0.5 mm 0.00 in/hr0.0 mm/hr 0.07 in1.8 mm
10:51 PM 30.9°F-0.6°C 29.6°F-1.3°C 95% 21.0 mph NNW33.8 kmh NNW 25.0 mph40.2 kmh 29.98 in1015.2 mb 0.02 in0.5 mm 0.00 in/hr0.0 mm/hr 0.07 in1.8 mm
10:52 PM 30.9°F-0.6°C 29.6°F-1.3°C 95% 10.0 mph NNW16.1 kmh NNW 25.0 mph40.2 kmh 29.98 in1015.2 mb 0.02 in0.5 mm 0.00 in/hr0.0 mm/hr 0.07 in1.8 mm
10:53 PM 30.9°F-0.6°C 29.6°F-1.3°C 95% 11.0 mph NNW17.7 kmh NNW 25.0 mph40.2 kmh 29.98 in1015.2 mb 0.02 in0.5 mm 0.00 in/hr0.0 mm/hr 0.07 in1.8 mm
10:54 PM 30.9°F-0.6°C 29.6°F-1.3°C 95% 20.0 mph NNW32.2 kmh NNW 25.0 mph40.2 kmh 29.98 in1015.2 mb 0.02 in0.5 mm 0.00 in/hr0.0 mm/hr 0.07 in1.8 mm
10:55 PM 30.9°F-0.6°C 29.6°F-1.3°C 95% 25.0 mph N40.2 kmh N 25.0 mph40.2 kmh 29.98 in1015.2 mb 0.02 in0.5 mm 0.00 in/hr0.0 mm/hr 0.07 in1.8 mm
10:56 PM 30.8°F-0.7°C 29.5°F-1.4°C 95% 19.0 mph N30.6 kmh N 25.0 mph40.2 kmh 29.98 in1015.2 mb 0.02 in0.5 mm 0.00 in/hr0.0 mm/hr 0.07 in1.8 mm
10:57 PM 30.9°F-0.6°C 29.6°F-1.3°C 95% 21.0 mph N33.8 kmh N 25.0 mph40.2 kmh 29.98 in1015.2 mb 0.02 in0.5 mm 0.00 in/hr0.0 mm/hr 0.07 in1.8 mm
10:58 PM 30.8°F-0.7°C 29.5°F-1.4°C 95% 9.0 mph NNW14.5 kmh NNW 25.0 mph40.2 kmh 29.98 in1015.2 mb 0.02 in0.5 mm 0.00 in/hr0.0 mm/hr 0.07 in1.8 mm
10:59 PM 30.8°F-0.7°C 29.5°F-1.4°C 95% 22.0 mph NNW35.4 kmh NNW 25.0 mph40.2 kmh 29.98 in1015.2 mb 0.02 in0.5 mm 0.00 in/hr0.0 mm/hr 0.07 in1.8 mm
11:00 PM 30.8°F-0.7°C 29.5°F-1.4°C 95% 18.0 mph N29.0 kmh N 25.0 mph40.2 kmh 29.98 in1015.2 mb 0.02 in0.5 mm 0.00 in/hr0.0 mm/hr 0.07 in1.8 mm
11:01 PM 30.8°F-0.7°C 29.5°F-1.4°C 95% 20.0 mph NW32.2 kmh NW 28.0 mph45.1 kmh 29.98 in1015.2 mb 0.01 in0.3 mm 0.00 in/hr0.0 mm/hr 0.07 in1.8 mm
11:02 PM 30.8°F-0.7°C 29.5°F-1.4°C 95% 15.0 mph NNW24.1 kmh NNW 28.0 mph45.1 kmh 29.98 in1015.2 mb 0.01 in0.3 mm 0.00 in/hr0.0 mm/hr 0.07 in1.8 mm
11:03 PM 30.8°F-0.7°C 29.5°F-1.4°C 95% 19.0 mph NNW30.6 kmh NNW 28.0 mph45.1 kmh 29.98 in1015.2 mb 0.01 in0.3 mm 0.00 in/hr0.0 mm/hr 0.07 in1.8 mm
11:04 PM 30.8°F-0.7°C 29.5°F-1.4°C 95% 15.0 mph N24.1 kmh N 28.0 mph45.1 kmh 29.98 in1015.2 mb 0.01 in0.3 mm 0.00 in/hr0.0 mm/hr 0.07 in1.8 mm
11:05 PM 30.8°F-0.7°C 29.5°F-1.4°C 95% 12.0 mph N19.3 kmh N 28.0 mph45.1 kmh 29.98 in1015.2 mb 0.01 in0.3 mm 0.00 in/hr0.0 mm/hr 0.07 in1.8 mm
11:06 PM 30.8°F-0.7°C 29.5°F-1.4°C 95% 18.0 mph NNW29.0 kmh NNW 28.0 mph45.1 kmh 29.98 in1015.2 mb 0.01 in0.3 mm 0.00 in/hr0.0 mm/hr 0.07 in1.8 mm
11:07 PM 30.8°F-0.7°C 29.5°F-1.4°C 95% 19.0 mph N30.6 kmh N 28.0 mph45.1 kmh 29.99 in1015.6 mb 0.01 in0.3 mm 0.00 in/hr0.0 mm/hr 0.07 in1.8 mm
11:08 PM 30.8°F-0.7°C 29.5°F-1.4°C 95% 15.0 mph NW24.1 kmh NW 28.0 mph45.1 kmh 29.99 in1015.6 mb 0.01 in0.3 mm 0.00 in/hr0.0 mm/hr 0.07 in1.8 mm
11:09 PM 30.8°F-0.7°C 29.5°F-1.4°C 95% 16.0 mph NNW25.7 kmh NNW 28.0 mph45.1 kmh 29.99 in1015.6 mb 0.01 in0.3 mm 0.00 in/hr0.0 mm/hr 0.07 in1.8 mm
11:10 PM 30.9°F-0.6°C 29.6°F-1.3°C 95% 20.0 mph N32.2 kmh N 28.0 mph45.1 kmh 29.99 in1015.6 mb 0.01 in0.3 mm 0.00 in/hr0.0 mm/hr 0.07 in1.8 mm
11:11 PM 30.8°F-0.7°C 29.5°F-1.4°C 95% 14.0 mph NW22.5 kmh NW 28.0 mph45.1 kmh 29.99 in1015.6 mb 0.01 in0.3 mm 0.00 in/hr0.0 mm/hr 0.07 in1.8 mm
11:12 PM 30.9°F-0.6°C 29.6°F-1.3°C 95% 16.0 mph N25.7 kmh N 28.0 mph45.1 kmh 29.99 in1015.6 mb 0.01 in0.3 mm 0.00 in/hr0.0 mm/hr 0.07 in1.8 mm
11:13 PM 30.9°F-0.6°C 29.6°F-1.3°C 95% 14.0 mph NNW22.5 kmh NNW 28.0 mph45.1 kmh 29.99 in1015.6 mb 0.01 in0.3 mm 0.00 in/hr0.0 mm/hr 0.07 in1.8 mm
11:14 PM 30.9°F-0.6°C 29.6°F-1.3°C 95% 22.0 mph NNW35.4 kmh NNW 28.0 mph45.1 kmh 29.99 in1015.6 mb 0.01 in0.3 mm 0.00 in/hr0.0 mm/hr 0.07 in1.8 mm
11:15 PM 30.9°F-0.6°C 29.6°F-1.3°C 95% 18.0 mph N29.0 kmh N 28.0 mph45.1 kmh 29.99 in1015.6 mb 0.01 in0.3 mm 0.00 in/hr0.0 mm/hr 0.07 in1.8 mm
11:16 PM 30.9°F-0.6°C 29.6°F-1.3°C 95% 22.0 mph N35.4 kmh N 28.0 mph45.1 kmh 29.99 in1015.6 mb 0.01 in0.3 mm 0.00 in/hr0.0 mm/hr 0.07 in1.8 mm
11:17 PM 30.8°F-0.7°C 29.5°F-1.4°C 95% 20.0 mph NNW32.2 kmh NNW 28.0 mph45.1 kmh 29.99 in1015.6 mb 0.01 in0.3 mm 0.00 in/hr0.0 mm/hr 0.07 in1.8 mm
11:18 PM 30.8°F-0.7°C 29.5°F-1.4°C 95% 20.0 mph NNW32.2 kmh NNW 28.0 mph45.1 kmh 29.99 in1015.6 mb 0.01 in0.3 mm 0.00 in/hr0.0 mm/hr 0.07 in1.8 mm
11:19 PM 30.9°F-0.6°C 29.6°F-1.3°C 95% 17.0 mph NW27.4 kmh NW 28.0 mph45.1 kmh 29.99 in1015.6 mb 0.01 in0.3 mm 0.00 in/hr0.0 mm/hr 0.07 in1.8 mm
11:20 PM 30.8°F-0.7°C 29.5°F-1.4°C 95% 17.0 mph N27.4 kmh N 28.0 mph45.1 kmh 29.99 in1015.6 mb 0.01 in0.3 mm 0.00 in/hr0.0 mm/hr 0.07 in1.8 mm
11:21 PM 30.8°F-0.7°C 29.5°F-1.4°C 95% 12.0 mph NNW19.3 kmh NNW 28.0 mph45.1 kmh 29.99 in1015.6 mb 0.01 in0.3 mm 0.00 in/hr0.0 mm/hr 0.07 in1.8 mm
11:22 PM 30.8°F-0.7°C 29.3°F-1.5°C 94% 13.0 mph NNW20.9 kmh NNW 28.0 mph45.1 kmh 29.99 in1015.6 mb 0.01 in0.3 mm 0.00 in/hr0.0 mm/hr 0.07 in1.8 mm
11:23 PM 30.8°F-0.7°C 29.3°F-1.5°C 94% 16.0 mph NW25.7 kmh NW 28.0 mph45.1 kmh 29.99 in1015.6 mb 0.01 in0.3 mm 0.00 in/hr0.0 mm/hr 0.07 in1.8 mm
11:24 PM 30.9°F-0.6°C 29.4°F-1.4°C 94% 16.0 mph NNW25.7 kmh NNW 28.0 mph45.1 kmh 30.00 in1015.9 mb 0.01 in0.3 mm 0.00 in/hr0.0 mm/hr 0.07 in1.8 mm
11:25 PM 30.8°F-0.7°C 29.3°F-1.5°C 94% 19.0 mph N30.6 kmh N 28.0 mph45.1 kmh 30.00 in1015.9 mb 0.01 in0.3 mm 0.00 in/hr0.0 mm/hr 0.07 in1.8 mm
11:26 PM 30.8°F-0.7°C 29.3°F-1.5°C 94% 14.0 mph N22.5 kmh N 28.0 mph45.1 kmh 29.99 in1015.6 mb 0.01 in0.3 mm 0.00 in/hr0.0 mm/hr 0.07 in1.8 mm
11:27 PM 30.8°F-0.7°C 29.3°F-1.5°C 94% 15.0 mph N24.1 kmh N 28.0 mph45.1 kmh 29.99 in1015.6 mb 0.01 in0.3 mm 0.00 in/hr0.0 mm/hr 0.07 in1.8 mm
11:28 PM 30.8°F-0.7°C 29.3°F-1.5°C 94% 20.0 mph N32.2 kmh N 28.0 mph45.1 kmh 30.00 in1015.9 mb 0.01 in0.3 mm 0.00 in/hr0.0 mm/hr 0.07 in1.8 mm
11:29 PM 30.8°F-0.7°C 29.3°F-1.5°C 94% 15.0 mph NNW24.1 kmh NNW 28.0 mph45.1 kmh 30.00 in1015.9 mb 0.01 in0.3 mm 0.00 in/hr0.0 mm/hr 0.07 in1.8 mm
11:30 PM 30.8°F-0.7°C 29.3°F-1.5°C 94% 17.0 mph N27.4 kmh N 28.0 mph45.1 kmh 30.00 in1015.9 mb 0.01 in0.3 mm 0.00 in/hr0.0 mm/hr 0.07 in1.8 mm
11:31 PM 30.8°F-0.7°C 29.3°F-1.5°C 94% 19.0 mph NNW30.6 kmh NNW 21.0 mph33.8 kmh 30.00 in1015.9 mb 0.01 in0.3 mm 0.00 in/hr0.0 mm/hr 0.07 in1.8 mm
11:32 PM 30.8°F-0.7°C 29.3°F-1.5°C 94% 17.0 mph N27.4 kmh N 24.0 mph38.6 kmh 30.00 in1015.9 mb 0.01 in0.3 mm 0.00 in/hr0.0 mm/hr 0.07 in1.8 mm
11:33 PM 30.8°F-0.7°C 29.3°F-1.5°C 94% 13.0 mph NNE20.9 kmh NNE 24.0 mph38.6 kmh 30.00 in1015.9 mb 0.01 in0.3 mm 0.00 in/hr0.0 mm/hr 0.07 in1.8 mm
11:34 PM 30.8°F-0.7°C 29.3°F-1.5°C 94% 13.0 mph N20.9 kmh N 24.0 mph38.6 kmh 30.00 in1015.9 mb 0.01 in0.3 mm 0.00 in/hr0.0 mm/hr 0.07 in1.8 mm
11:35 PM 30.8°F-0.7°C 29.3°F-1.5°C 94% 14.0 mph N22.5 kmh N 24.0 mph38.6 kmh 30.00 in1015.9 mb 0.01 in0.3 mm 0.00 in/hr0.0 mm/hr 0.07 in1.8 mm
11:36 PM 30.8°F-0.7°C 29.3°F-1.5°C 94% 16.0 mph NNW25.7 kmh NNW 24.0 mph38.6 kmh 30.00 in1015.9 mb 0.01 in0.3 mm 0.00 in/hr0.0 mm/hr 0.07 in1.8 mm
11:37 PM 30.8°F-0.7°C 29.3°F-1.5°C 94% 19.0 mph N30.6 kmh N 24.0 mph38.6 kmh 30.00 in1015.9 mb 0.01 in0.3 mm 0.00 in/hr0.0 mm/hr 0.07 in1.8 mm
11:38 PM 30.8°F-0.7°C 29.3°F-1.5°C 94% 18.0 mph NNW29.0 kmh NNW 24.0 mph38.6 kmh 30.00 in1015.9 mb 0.01 in0.3 mm 0.00 in/hr0.0 mm/hr 0.07 in1.8 mm
11:39 PM 30.8°F-0.7°C 29.3°F-1.5°C 94% 19.0 mph N30.6 kmh N 24.0 mph38.6 kmh 30.00 in1015.9 mb 0.01 in0.3 mm 0.00 in/hr0.0 mm/hr 0.07 in1.8 mm
11:40 PM 30.8°F-0.7°C 29.3°F-1.5°C 94% 17.0 mph NW27.4 kmh NW 24.0 mph38.6 kmh 30.00 in1015.9 mb 0.01 in0.3 mm 0.00 in/hr0.0 mm/hr 0.07 in1.8 mm
11:41 PM 30.8°F-0.7°C 29.3°F-1.5°C 94% 17.0 mph NNW27.4 kmh NNW 24.0 mph38.6 kmh 30.00 in1015.9 mb 0.01 in0.3 mm 0.00 in/hr0.0 mm/hr 0.07 in1.8 mm
11:42 PM 30.8°F-0.7°C 29.3°F-1.5°C 94% 17.0 mph NNW27.4 kmh NNW 24.0 mph38.6 kmh 30.00 in1015.9 mb 0.01 in0.3 mm 0.00 in/hr0.0 mm/hr 0.07 in1.8 mm
11:43 PM 30.7°F-0.7°C 29.2°F-1.6°C 94% 15.0 mph NNW24.1 kmh NNW 24.0 mph38.6 kmh 30.00 in1015.9 mb 0.01 in0.3 mm 0.00 in/hr0.0 mm/hr 0.07 in1.8 mm
11:44 PM 30.7°F-0.7°C 29.2°F-1.6°C 94% 25.0 mph NNW40.2 kmh NNW 25.0 mph40.2 kmh 30.00 in1015.9 mb 0.01 in0.3 mm 0.00 in/hr0.0 mm/hr 0.07 in1.8 mm
11:45 PM 30.7°F-0.7°C 29.2°F-1.6°C 94% 21.0 mph NW33.8 kmh NW 25.0 mph40.2 kmh 30.01 in1016.3 mb 0.01 in0.3 mm 0.00 in/hr0.0 mm/hr 0.07 in1.8 mm
11:46 PM 30.7°F-0.7°C 29.2°F-1.6°C 94% 14.0 mph N22.5 kmh N 25.0 mph40.2 kmh 30.00 in1015.9 mb 0.01 in0.3 mm 0.00 in/hr0.0 mm/hr 0.07 in1.8 mm
11:47 PM 30.7°F-0.7°C 29.2°F-1.6°C 94% 23.0 mph NNW37.0 kmh NNW 25.0 mph40.2 kmh 30.01 in1016.3 mb 0.01 in0.3 mm 0.00 in/hr0.0 mm/hr 0.07 in1.8 mm
11:48 PM 30.7°F-0.7°C 29.2°F-1.6°C 94% 15.0 mph NNW24.1 kmh NNW 25.0 mph40.2 kmh 30.01 in1016.3 mb 0.01 in0.3 mm 0.00 in/hr0.0 mm/hr 0.07 in1.8 mm
11:49 PM 30.7°F-0.7°C 29.2°F-1.6°C 94% 20.0 mph NNW32.2 kmh NNW 25.0 mph40.2 kmh 30.01 in1016.3 mb 0.01 in0.3 mm 0.00 in/hr0.0 mm/hr 0.07 in1.8 mm
11:50 PM 30.7°F-0.7°C 29.2°F-1.6°C 94% 22.0 mph NNW35.4 kmh NNW 25.0 mph40.2 kmh 30.01 in1016.3 mb 0.01 in0.3 mm 0.00 in/hr0.0 mm/hr 0.07 in1.8 mm
11:51 PM 30.7°F-0.7°C 29.2°F-1.6°C 94% 16.0 mph NNW25.7 kmh NNW 26.0 mph41.8 kmh 30.01 in1016.3 mb 0.01 in0.3 mm 0.00 in/hr0.0 mm/hr 0.07 in1.8 mm
11:52 PM 30.7°F-0.7°C 29.2°F-1.6°C 94% 23.0 mph NNW37.0 kmh NNW 26.0 mph41.8 kmh 30.01 in1016.3 mb 0.01 in0.3 mm 0.00 in/hr0.0 mm/hr 0.07 in1.8 mm
11:53 PM 30.7°F-0.7°C 29.2°F-1.6°C 94% 23.0 mph NNW37.0 kmh NNW 26.0 mph41.8 kmh 30.01 in1016.3 mb 0.01 in0.3 mm 0.00 in/hr0.0 mm/hr 0.07 in1.8 mm
11:54 PM 30.7°F-0.7°C 29.2°F-1.6°C 94% 24.0 mph NNW38.6 kmh NNW 26.0 mph41.8 kmh 30.01 in1016.3 mb 0.01 in0.3 mm 0.00 in/hr0.0 mm/hr 0.07 in1.8 mm
11:55 PM 30.7°F-0.7°C 29.2°F-1.6°C 94% 20.0 mph NNW32.2 kmh NNW 26.0 mph41.8 kmh 30.01 in1016.3 mb 0.01 in0.3 mm 0.00 in/hr0.0 mm/hr 0.07 in1.8 mm
11:56 PM 30.7°F-0.7°C 29.2°F-1.6°C 94% 17.0 mph N27.4 kmh N 26.0 mph41.8 kmh 30.01 in1016.3 mb 0.01 in0.3 mm 0.00 in/hr0.0 mm/hr 0.07 in1.8 mm
11:57 PM 30.7°F-0.7°C 29.2°F-1.6°C 94% 15.0 mph N24.1 kmh N 26.0 mph41.8 kmh 30.01 in1016.3 mb 0.01 in0.3 mm 0.00 in/hr0.0 mm/hr 0.07 in1.8 mm
11:58 PM 30.7°F-0.7°C 29.2°F-1.6°C 94% 21.0 mph N33.8 kmh N 26.0 mph41.8 kmh 30.01 in1016.3 mb 0.01 in0.3 mm 0.00 in/hr0.0 mm/hr 0.07 in1.8 mm
11:59 PM 30.7°F-0.7°C 28.9°F-1.7°C 93% 20.0 mph NNW32.2 kmh NNW 26.0 mph41.8 kmh 30.01 in1016.3 mb 0.01 in0.3 mm 0.00 in/hr0.0 mm/hr 0.07 in1.8 mm